sensor_id;sensor_type;location;lat;lon;timestamp;temperature;humidity
80279;DHT22;70683;52.492;13.416;2023-09-12T00:00:06;22.80;61.50
80279;DHT22;70683;52.492;13.416;2023-09-12T00:02:33;22.80;61.60
80279;DHT22;70683;52.492;13.416;2023-09-12T00:05:00;22.80;61.60
80279;DHT22;70683;52.492;13.416;2023-09-12T00:07:26;22.80;61.40
80279;DHT22;70683;52.492;13.416;2023-09-12T00:09:53;22.70;61.20
80279;DHT22;70683;52.492;13.416;2023-09-12T00:12:22;22.70;60.80
80279;DHT22;70683;52.492;13.416;2023-09-12T00:14:49;22.70;60.40
80279;DHT22;70683;52.492;13.416;2023-09-12T00:17:16;22.70;60.10
80279;DHT22;70683;52.492;13.416;2023-09-12T00:19:43;22.70;59.80
80279;DHT22;70683;52.492;13.416;2023-09-12T00:22:10;22.70;60.00
80279;DHT22;70683;52.492;13.416;2023-09-12T00:24:36;22.60;60.00
80279;DHT22;70683;52.492;13.416;2023-09-12T00:27:04;22.60;60.00
80279;DHT22;70683;52.492;13.416;2023-09-12T00:29:32;22.60;60.10
80279;DHT22;70683;52.492;13.416;2023-09-12T00:31:58;22.60;60.40
80279;DHT22;70683;52.492;13.416;2023-09-12T00:34:25;22.60;60.30
80279;DHT22;70683;52.492;13.416;2023-09-12T00:36:51;22.50;60.00
80279;DHT22;70683;52.492;13.416;2023-09-12T00:39:18;22.50;60.00
80279;DHT22;70683;52.492;13.416;2023-09-12T00:41:45;22.50;59.80
80279;DHT22;70683;52.492;13.416;2023-09-12T00:44:11;22.50;59.80
80279;DHT22;70683;52.492;13.416;2023-09-12T00:46:38;22.50;59.80
80279;DHT22;70683;52.492;13.416;2023-09-12T00:49:07;22.50;59.80
80279;DHT22;70683;52.492;13.416;2023-09-12T00:51:35;22.50;59.90
80279;DHT22;70683;52.492;13.416;2023-09-12T00:54:02;22.40;60.00
80279;DHT22;70683;52.492;13.416;2023-09-12T00:56:29;22.40;60.00
80279;DHT22;70683;52.492;13.416;2023-09-12T00:58:56;22.40;60.20
80279;DHT22;70683;52.492;13.416;2023-09-12T01:01:24;22.40;60.30
80279;DHT22;70683;52.492;13.416;2023-09-12T01:03:50;22.30;60.30
80279;DHT22;70683;52.492;13.416;2023-09-12T01:06:19;22.40;60.50
80279;DHT22;70683;52.492;13.416;2023-09-12T01:08:47;22.30;60.50
80279;DHT22;70683;52.492;13.416;2023-09-12T01:11:14;22.30;60.50
80279;DHT22;70683;52.492;13.416;2023-09-12T01:13:41;22.30;60.50
80279;DHT22;70683;52.492;13.416;2023-09-12T01:16:07;22.30;60.90
80279;DHT22;70683;52.492;13.416;2023-09-12T01:18:34;22.30;61.00
80279;DHT22;70683;52.492;13.416;2023-09-12T01:21:11;22.20;61.10
80279;DHT22;70683;52.492;13.416;2023-09-12T01:26:38;22.20;61.00
80279;DHT22;70683;52.492;13.416;2023-09-12T01:29:02;22.10;61.20
80279;DHT22;70683;52.492;13.416;2023-09-12T01:31:30;22.10;61.30
80279;DHT22;70683;52.492;13.416;2023-09-12T01:33:57;22.20;61.50
80279;DHT22;70683;52.492;13.416;2023-09-12T01:36:24;22.10;61.50
80279;DHT22;70683;52.492;13.416;2023-09-12T01:38:50;22.10;61.60
80279;DHT22;70683;52.492;13.416;2023-09-12T01:41:18;22.10;61.60
80279;DHT22;70683;52.492;13.416;2023-09-12T01:43:45;22.10;61.70
80279;DHT22;70683;52.492;13.416;2023-09-12T01:46:14;22.10;61.70
80279;DHT22;70683;52.492;13.416;2023-09-12T01:48:42;22.00;61.60
80279;DHT22;70683;52.492;13.416;2023-09-12T01:51:11;22.00;61.60
80279;DHT22;70683;52.492;13.416;2023-09-12T01:53:38;22.00;61.90
80279;DHT22;70683;52.492;13.416;2023-09-12T01:56:05;22.00;61.90
80279;DHT22;70683;52.492;13.416;2023-09-12T01:58:32;22.00;61.70
80279;DHT22;70683;52.492;13.416;2023-09-12T02:00:59;22.00;61.80
80279;DHT22;70683;52.492;13.416;2023-09-12T02:03:25;21.90;62.10
80279;DHT22;70683;52.492;13.416;2023-09-12T02:05:52;21.90;62.20
80279;DHT22;70683;52.492;13.416;2023-09-12T02:08:18;21.90;62.40
80279;DHT22;70683;52.492;13.416;2023-09-12T02:10:45;21.90;62.30
80279;DHT22;70683;52.492;13.416;2023-09-12T02:13:12;21.90;62.20
80279;DHT22;70683;52.492;13.416;2023-09-12T02:15:38;21.80;62.00
80279;DHT22;70683;52.492;13.416;2023-09-12T02:18:05;21.80;61.90
80279;DHT22;70683;52.492;13.416;2023-09-12T02:20:32;21.80;61.80
80279;DHT22;70683;52.492;13.416;2023-09-12T02:22:58;21.90;61.70
80279;DHT22;70683;52.492;13.416;2023-09-12T02:25:25;21.80;61.70
80279;DHT22;70683;52.492;13.416;2023-09-12T02:27:52;21.80;61.70
80279;DHT22;70683;52.492;13.416;2023-09-12T02:30:18;21.80;61.70
80279;DHT22;70683;52.492;13.416;2023-09-12T02:32:45;21.80;61.60
80279;DHT22;70683;52.492;13.416;2023-09-12T02:35:12;21.80;61.60
80279;DHT22;70683;52.492;13.416;2023-09-12T02:37:38;21.80;61.80
80279;DHT22;70683;52.492;13.416;2023-09-12T02:40:06;21.80;61.80
80279;DHT22;70683;52.492;13.416;2023-09-12T02:42:33;21.80;61.80
80279;DHT22;70683;52.492;13.416;2023-09-12T02:44:59;21.80;62.20
80279;DHT22;70683;52.492;13.416;2023-09-12T02:47:26;21.80;62.30
80279;DHT22;70683;52.492;13.416;2023-09-12T02:49:53;21.70;62.30
80279;DHT22;70683;52.492;13.416;2023-09-12T02:52:19;21.80;62.50
80279;DHT22;70683;52.492;13.416;2023-09-12T02:54:46;21.70;63.00
80279;DHT22;70683;52.492;13.416;2023-09-12T02:57:12;21.80;63.30
80279;DHT22;70683;52.492;13.416;2023-09-12T02:59:39;21.70;63.50
80279;DHT22;70683;52.492;13.416;2023-09-12T03:02:05;21.70;63.90
80279;DHT22;70683;52.492;13.416;2023-09-12T03:04:34;21.70;64.00
80279;DHT22;70683;52.492;13.416;2023-09-12T03:07:01;21.70;64.60
80279;DHT22;70683;52.492;13.416;2023-09-12T03:09:28;21.70;65.40
80279;DHT22;70683;52.492;13.416;2023-09-12T03:11:54;21.70;66.00
80279;DHT22;70683;52.492;13.416;2023-09-12T03:14:21;21.70;65.30
80279;DHT22;70683;52.492;13.416;2023-09-12T03:16:48;21.70;65.50
80279;DHT22;70683;52.492;13.416;2023-09-12T03:19:14;21.70;65.40
80279;DHT22;70683;52.492;13.416;2023-09-12T03:21:41;21.60;65.30
80279;DHT22;70683;52.492;13.416;2023-09-12T03:24:08;21.60;65.00
80279;DHT22;70683;52.492;13.416;2023-09-12T03:26:35;21.60;64.90
80279;DHT22;70683;52.492;13.416;2023-09-12T03:29:03;21.60;64.50
80279;DHT22;70683;52.492;13.416;2023-09-12T03:31:30;21.60;64.20
80279;DHT22;70683;52.492;13.416;2023-09-12T03:33:57;21.60;63.70
80279;DHT22;70683;52.492;13.416;2023-09-12T03:36:24;21.60;63.50
80279;DHT22;70683;52.492;13.416;2023-09-12T03:38:50;21.60;63.40
80279;DHT22;70683;52.492;13.416;2023-09-12T03:41:17;21.50;63.20
80279;DHT22;70683;52.492;13.416;2023-09-12T03:43:44;21.50;63.20
80279;DHT22;70683;52.492;13.416;2023-09-12T03:46:10;21.50;62.90
80279;DHT22;70683;52.492;13.416;2023-09-12T03:48:37;21.50;62.70
80279;DHT22;70683;52.492;13.416;2023-09-12T03:51:03;21.50;62.40
80279;DHT22;70683;52.492;13.416;2023-09-12T03:53:30;21.50;62.30
80279;DHT22;70683;52.492;13.416;2023-09-12T03:55:57;21.50;62.40
80279;DHT22;70683;52.492;13.416;2023-09-12T03:58:25;21.50;62.50
80279;DHT22;70683;52.492;13.416;2023-09-12T04:00:52;21.50;62.60
80279;DHT22;70683;52.492;13.416;2023-09-12T04:03:18;21.50;62.60
80279;DHT22;70683;52.492;13.416;2023-09-12T04:05:47;21.40;62.00
80279;DHT22;70683;52.492;13.416;2023-09-12T04:08:14;21.40;62.60
80279;DHT22;70683;52.492;13.416;2023-09-12T04:10:40;21.40;62.80
80279;DHT22;70683;52.492;13.416;2023-09-12T04:13:07;21.40;62.80
80279;DHT22;70683;52.492;13.416;2023-09-12T04:15:34;21.40;62.90
80279;DHT22;70683;52.492;13.416;2023-09-12T04:18:00;21.40;62.70
80279;DHT22;70683;52.492;13.416;2023-09-12T04:20:27;21.40;62.80
80279;DHT22;70683;52.492;13.416;2023-09-12T04:22:54;21.40;63.00
80279;DHT22;70683;52.492;13.416;2023-09-12T04:25:20;21.40;63.20
80279;DHT22;70683;52.492;13.416;2023-09-12T04:27:47;21.40;63.10
80279;DHT22;70683;52.492;13.416;2023-09-12T04:30:15;21.30;63.80
80279;DHT22;70683;52.492;13.416;2023-09-12T04:32:41;21.30;63.10
80279;DHT22;70683;52.492;13.416;2023-09-12T04:35:10;21.30;63.10
80279;DHT22;70683;52.492;13.416;2023-09-12T04:37:36;21.30;63.20
80279;DHT22;70683;52.492;13.416;2023-09-12T04:40:04;21.30;63.40
80279;DHT22;70683;52.492;13.416;2023-09-12T04:42:32;21.30;63.20
80279;DHT22;70683;52.492;13.416;2023-09-12T04:44:59;21.30;63.30
80279;DHT22;70683;52.492;13.416;2023-09-12T04:47:25;21.30;63.50
80279;DHT22;70683;52.492;13.416;2023-09-12T04:49:53;21.30;63.70
80279;DHT22;70683;52.492;13.416;2023-09-12T04:52:20;21.30;64.00
80279;DHT22;70683;52.492;13.416;2023-09-12T04:54:46;21.30;63.90
80279;DHT22;70683;52.492;13.416;2023-09-12T04:57:13;21.30;64.20
80279;DHT22;70683;52.492;13.416;2023-09-12T04:59:39;21.40;65.00
80279;DHT22;70683;52.492;13.416;2023-09-12T05:02:06;21.30;63.90
80279;DHT22;70683;52.492;13.416;2023-09-12T05:04:33;21.40;64.70
80279;DHT22;70683;52.492;13.416;2023-09-12T05:06:59;21.40;63.90
80279;DHT22;70683;52.492;13.416;2023-09-12T05:09:26;21.40;63.90
80279;DHT22;70683;52.492;13.416;2023-09-12T05:11:52;21.50;64.10
80279;DHT22;70683;52.492;13.416;2023-09-12T05:14:19;21.50;65.70
80279;DHT22;70683;52.492;13.416;2023-09-12T05:16:46;21.60;64.40
80279;DHT22;70683;52.492;13.416;2023-09-12T05:19:12;21.70;63.80
80279;DHT22;70683;52.492;13.416;2023-09-12T05:21:39;21.70;64.10
80279;DHT22;70683;52.492;13.416;2023-09-12T05:24:06;21.70;63.60
80279;DHT22;70683;52.492;13.416;2023-09-12T05:26:32;21.80;63.20
80279;DHT22;70683;52.492;13.416;2023-09-12T05:28:59;21.90;63.10
80279;DHT22;70683;52.492;13.416;2023-09-12T05:31:26;21.90;62.40
80279;DHT22;70683;52.492;13.416;2023-09-12T05:33:52;21.90;62.10
80279;DHT22;70683;52.492;13.416;2023-09-12T05:36:19;22.00;61.30
80279;DHT22;70683;52.492;13.416;2023-09-12T05:38:45;22.10;60.80
80279;DHT22;70683;52.492;13.416;2023-09-12T05:41:12;22.10;60.70
80279;DHT22;70683;52.492;13.416;2023-09-12T05:43:39;22.10;60.80
80279;DHT22;70683;52.492;13.416;2023-09-12T05:46:05;22.10;60.60
80279;DHT22;70683;52.492;13.416;2023-09-12T05:48:32;22.20;60.90
80279;DHT22;70683;52.492;13.416;2023-09-12T05:50:58;22.20;60.90
80279;DHT22;70683;52.492;13.416;2023-09-12T05:53:25;22.20;60.50
80279;DHT22;70683;52.492;13.416;2023-09-12T05:55:52;22.20;60.10
80279;DHT22;70683;52.492;13.416;2023-09-12T05:58:18;22.30;60.60
80279;DHT22;70683;52.492;13.416;2023-09-12T06:00:45;22.30;59.90
80279;DHT22;70683;52.492;13.416;2023-09-12T06:03:14;22.30;59.70
80279;DHT22;70683;52.492;13.416;2023-09-12T06:05:42;22.30;60.60
80279;DHT22;70683;52.492;13.416;2023-09-12T06:08:08;22.40;60.40
80279;DHT22;70683;52.492;13.416;2023-09-12T06:10:35;22.40;60.30
80279;DHT22;70683;52.492;13.416;2023-09-12T06:13:02;22.50;59.30
80279;DHT22;70683;52.492;13.416;2023-09-12T06:15:28;22.50;59.10
80279;DHT22;70683;52.492;13.416;2023-09-12T06:17:55;22.60;59.40
80279;DHT22;70683;52.492;13.416;2023-09-12T06:20:22;22.60;59.70
80279;DHT22;70683;52.492;13.416;2023-09-12T06:22:48;22.70;59.70
80279;DHT22;70683;52.492;13.416;2023-09-12T06:25:15;22.80;59.40
80279;DHT22;70683;52.492;13.416;2023-09-12T06:27:42;22.80;59.20
80279;DHT22;70683;52.492;13.416;2023-09-12T06:30:09;22.90;59.30
80279;DHT22;70683;52.492;13.416;2023-09-12T06:32:36;23.00;58.80
80279;DHT22;70683;52.492;13.416;2023-09-12T06:35:05;23.10;58.20
80279;DHT22;70683;52.492;13.416;2023-09-12T06:37:32;23.10;58.50
80279;DHT22;70683;52.492;13.416;2023-09-12T06:39:58;23.20;58.00
80279;DHT22;70683;52.492;13.416;2023-09-12T06:42:25;23.30;58.20
80279;DHT22;70683;52.492;13.416;2023-09-12T06:44:51;23.40;57.80
80279;DHT22;70683;52.492;13.416;2023-09-12T06:47:18;23.50;57.60
80279;DHT22;70683;52.492;13.416;2023-09-12T06:49:45;23.60;57.40
80279;DHT22;70683;52.492;13.416;2023-09-12T06:52:11;23.80;57.40
80279;DHT22;70683;52.492;13.416;2023-09-12T06:54:39;23.90;56.70
80279;DHT22;70683;52.492;13.416;2023-09-12T06:57:05;24.10;56.60
80279;DHT22;70683;52.492;13.416;2023-09-12T06:59:32;24.20;56.30
80279;DHT22;70683;52.492;13.416;2023-09-12T07:01:59;24.50;56.00
80279;DHT22;70683;52.492;13.416;2023-09-12T07:04:25;24.60;55.60
80279;DHT22;70683;52.492;13.416;2023-09-12T07:06:53;24.90;55.20
80279;DHT22;70683;52.492;13.416;2023-09-12T07:09:19;25.10;54.20
80279;DHT22;70683;52.492;13.416;2023-09-12T07:11:47;25.30;53.80
80279;DHT22;70683;52.492;13.416;2023-09-12T07:14:14;25.60;53.40
80279;DHT22;70683;52.492;13.416;2023-09-12T07:16:41;25.90;52.10
80279;DHT22;70683;52.492;13.416;2023-09-12T07:19:07;26.20;50.80
80279;DHT22;70683;52.492;13.416;2023-09-12T07:21:34;26.60;50.10
80279;DHT22;70683;52.492;13.416;2023-09-12T07:24:00;26.90;49.70
80279;DHT22;70683;52.492;13.416;2023-09-12T07:26:27;27.20;48.80
80279;DHT22;70683;52.492;13.416;2023-09-12T07:28:54;27.60;48.10
80279;DHT22;70683;52.492;13.416;2023-09-12T07:31:20;27.90;47.00
80279;DHT22;70683;52.492;13.416;2023-09-12T07:33:47;28.30;46.20
80279;DHT22;70683;52.492;13.416;2023-09-12T07:36:14;28.90;45.20
80279;DHT22;70683;52.492;13.416;2023-09-12T07:38:41;29.70;43.20
80279;DHT22;70683;52.492;13.416;2023-09-12T07:41:08;30.60;41.50
80279;DHT22;70683;52.492;13.416;2023-09-12T07:43:34;31.60;40.00
80279;DHT22;70683;52.492;13.416;2023-09-12T07:46:01;32.50;37.70
80279;DHT22;70683;52.492;13.416;2023-09-12T07:48:28;33.30;36.40
80279;DHT22;70683;52.492;13.416;2023-09-12T07:50:55;34.00;34.70
80279;DHT22;70683;52.492;13.416;2023-09-12T07:53:21;34.70;33.20
80279;DHT22;70683;52.492;13.416;2023-09-12T07:55:48;35.20;32.60
80279;DHT22;70683;52.492;13.416;2023-09-12T07:58:16;35.90;31.30
80279;DHT22;70683;52.492;13.416;2023-09-12T08:00:46;36.30;30.00
80279;DHT22;70683;52.492;13.416;2023-09-12T08:03:12;36.70;29.80
80279;DHT22;70683;52.492;13.416;2023-09-12T08:05:41;36.80;29.60
80279;DHT22;70683;52.492;13.416;2023-09-12T08:08:07;36.90;29.40
80279;DHT22;70683;52.492;13.416;2023-09-12T08:10:34;37.00;29.10
80279;DHT22;70683;52.492;13.416;2023-09-12T08:13:00;37.20;29.10
80279;DHT22;70683;52.492;13.416;2023-09-12T08:15:27;37.40;28.80
80279;DHT22;70683;52.492;13.416;2023-09-12T08:17:54;37.60;28.90
80279;DHT22;70683;52.492;13.416;2023-09-12T08:20:21;37.80;28.70
80279;DHT22;70683;52.492;13.416;2023-09-12T08:22:48;37.80;28.80
80279;DHT22;70683;52.492;13.416;2023-09-12T08:25:14;37.60;28.70
80279;DHT22;70683;52.492;13.416;2023-09-12T08:27:41;37.50;28.90
80279;DHT22;70683;52.492;13.416;2023-09-12T08:30:10;37.30;28.80
80279;DHT22;70683;52.492;13.416;2023-09-12T08:32:39;37.10;29.30
80279;DHT22;70683;52.492;13.416;2023-09-12T08:35:08;37.00;29.50
80279;DHT22;70683;52.492;13.416;2023-09-12T08:37:34;36.90;29.40
80279;DHT22;70683;52.492;13.416;2023-09-12T08:40:01;36.90;29.70
80279;DHT22;70683;52.492;13.416;2023-09-12T08:42:29;36.80;29.40
80279;DHT22;70683;52.492;13.416;2023-09-12T08:44:58;37.00;29.40
80279;DHT22;70683;52.492;13.416;2023-09-12T08:47:25;37.30;28.90
80279;DHT22;70683;52.492;13.416;2023-09-12T08:49:52;37.90;28.40
80279;DHT22;70683;52.492;13.416;2023-09-12T08:52:20;38.30;27.60
80279;DHT22;70683;52.492;13.416;2023-09-12T08:54:47;38.80;27.00
80279;DHT22;70683;52.492;13.416;2023-09-12T08:57:13;39.30;26.30
80279;DHT22;70683;52.492;13.416;2023-09-12T08:59:42;39.60;26.30
80279;DHT22;70683;52.492;13.416;2023-09-12T09:02:10;39.90;25.90
80279;DHT22;70683;52.492;13.416;2023-09-12T09:04:39;40.00;25.80
80279;DHT22;70683;52.492;13.416;2023-09-12T09:07:07;40.00;25.00
80279;DHT22;70683;52.492;13.416;2023-09-12T09:09:35;40.00;25.30
80279;DHT22;70683;52.492;13.416;2023-09-12T09:12:01;40.00;25.10
80279;DHT22;70683;52.492;13.416;2023-09-12T09:14:30;40.00;25.50
80279;DHT22;70683;52.492;13.416;2023-09-12T09:16:58;39.90;25.00
80279;DHT22;70683;52.492;13.416;2023-09-12T09:19:44;39.40;25.90
80279;DHT22;70683;52.492;13.416;2023-09-12T09:22:11;39.20;26.40
80279;DHT22;70683;52.492;13.416;2023-09-12T09:24:37;39.30;26.70
80279;DHT22;70683;52.492;13.416;2023-09-12T09:27:04;39.40;26.70
80279;DHT22;70683;52.492;13.416;2023-09-12T09:29:31;39.30;26.40
80279;DHT22;70683;52.492;13.416;2023-09-12T09:32:00;39.40;27.00
80279;DHT22;70683;52.492;13.416;2023-09-12T09:34:27;39.10;27.00
80279;DHT22;70683;52.492;13.416;2023-09-12T09:36:56;39.00;27.60
80279;DHT22;70683;52.492;13.416;2023-09-12T09:39:25;39.20;27.50
80279;DHT22;70683;52.492;13.416;2023-09-12T09:41:56;39.00;27.30
80279;DHT22;70683;52.492;13.416;2023-09-12T09:44:25;38.60;28.30
80279;DHT22;70683;52.492;13.416;2023-09-12T09:46:55;38.30;29.20
80279;DHT22;70683;52.492;13.416;2023-09-12T09:49:23;38.20;28.70
80279;DHT22;70683;52.492;13.416;2023-09-12T09:51:50;38.40;29.20
80279;DHT22;70683;52.492;13.416;2023-09-12T09:54:16;37.80;29.40
80279;DHT22;70683;52.492;13.416;2023-09-12T09:56:47;37.80;29.70
80279;DHT22;70683;52.492;13.416;2023-09-12T09:59:16;38.10;29.50
80279;DHT22;70683;52.492;13.416;2023-09-12T10:01:45;38.40;29.50
80279;DHT22;70683;52.492;13.416;2023-09-12T10:04:12;38.30;29.20
80279;DHT22;70683;52.492;13.416;2023-09-12T10:06:39;37.90;29.70
80279;DHT22;70683;52.492;13.416;2023-09-12T10:09:10;37.90;30.20
80279;DHT22;70683;52.492;13.416;2023-09-12T10:11:38;38.10;30.10
80279;DHT22;70683;52.492;13.416;2023-09-12T10:14:06;38.20;29.60
80279;DHT22;70683;52.492;13.416;2023-09-12T10:16:40;38.50;29.50
80279;DHT22;70683;52.492;13.416;2023-09-12T10:19:15;38.40;29.40
80279;DHT22;70683;52.492;13.416;2023-09-12T10:21:50;38.10;29.60
80279;DHT22;70683;52.492;13.416;2023-09-12T10:24:17;37.50;30.60
80279;DHT22;70683;52.492;13.416;2023-09-12T10:26:43;37.40;30.90
80279;DHT22;70683;52.492;13.416;2023-09-12T10:29:13;37.30;31.30
80279;DHT22;70683;52.492;13.416;2023-09-12T10:31:42;37.20;31.20
80279;DHT22;70683;52.492;13.416;2023-09-12T10:34:11;37.30;31.30
80279;DHT22;70683;52.492;13.416;2023-09-12T10:36:40;37.60;31.10
80279;DHT22;70683;52.492;13.416;2023-09-12T10:39:08;37.80;30.40
80279;DHT22;70683;52.492;13.416;2023-09-12T10:41:38;37.50;30.70
80279;DHT22;70683;52.492;13.416;2023-09-12T10:44:09;37.70;30.50
80279;DHT22;70683;52.492;13.416;2023-09-12T10:46:38;37.60;30.30
80279;DHT22;70683;52.492;13.416;2023-09-12T10:49:07;37.80;30.00
80279;DHT22;70683;52.492;13.416;2023-09-12T10:51:38;38.00;30.00
80279;DHT22;70683;52.492;13.416;2023-09-12T10:54:06;38.40;30.00
80279;DHT22;70683;52.492;13.416;2023-09-12T10:56:34;38.70;28.70
80279;DHT22;70683;52.492;13.416;2023-09-12T10:59:09;38.80;28.60
80279;DHT22;70683;52.492;13.416;2023-09-12T11:01:40;38.80;28.40
80279;DHT22;70683;52.492;13.416;2023-09-12T11:07:00;38.90;28.70
80279;DHT22;70683;52.492;13.416;2023-09-12T11:09:27;39.30;28.20
80279;DHT22;70683;52.492;13.416;2023-09-12T11:12:02;39.60;27.70
80279;DHT22;70683;52.492;13.416;2023-09-12T11:14:29;39.90;27.40
80279;DHT22;70683;52.492;13.416;2023-09-12T11:17:22;39.90;27.20
80279;DHT22;70683;52.492;13.416;2023-09-12T11:19:51;40.10;27.10
80279;DHT22;70683;52.492;13.416;2023-09-12T11:22:24;40.00;27.20
80279;DHT22;70683;52.492;13.416;2023-09-12T11:24:51;40.00;27.20
80279;DHT22;70683;52.492;13.416;2023-09-12T11:27:19;39.90;27.60
80279;DHT22;70683;52.492;13.416;2023-09-12T11:29:45;40.00;27.70
80279;DHT22;70683;52.492;13.416;2023-09-12T11:34:49;40.00;27.50
80279;DHT22;70683;52.492;13.416;2023-09-12T11:37:23;40.10;27.70
80279;DHT22;70683;52.492;13.416;2023-09-12T11:39:50;40.40;27.40
80279;DHT22;70683;52.492;13.416;2023-09-12T11:42:18;40.10;27.70
80279;DHT22;70683;52.492;13.416;2023-09-12T11:44:48;40.40;27.50
80279;DHT22;70683;52.492;13.416;2023-09-12T11:47:16;40.70;27.00
80279;DHT22;70683;52.492;13.416;2023-09-12T11:49:43;41.00;26.90
80279;DHT22;70683;52.492;13.416;2023-09-12T11:52:11;41.00;26.50
80279;DHT22;70683;52.492;13.416;2023-09-12T11:54:41;40.90;26.70
80279;DHT22;70683;52.492;13.416;2023-09-12T11:57:09;40.90;26.90
80279;DHT22;70683;52.492;13.416;2023-09-12T11:59:42;40.80;26.60
80279;DHT22;70683;52.492;13.416;2023-09-12T12:02:11;40.50;27.10
80279;DHT22;70683;52.492;13.416;2023-09-12T12:04:39;40.00;27.50
80279;DHT22;70683;52.492;13.416;2023-09-12T12:07:07;39.60;28.10
80279;DHT22;70683;52.492;13.416;2023-09-12T12:09:34;39.30;28.40
80279;DHT22;70683;52.492;13.416;2023-09-12T12:12:08;38.80;28.80
80279;DHT22;70683;52.492;13.416;2023-09-12T12:14:34;38.30;29.10
80279;DHT22;70683;52.492;13.416;2023-09-12T12:17:07;37.80;29.80
80279;DHT22;70683;52.492;13.416;2023-09-12T12:19:34;37.40;30.50
80279;DHT22;70683;52.492;13.416;2023-09-12T12:22:03;37.10;30.80
80279;DHT22;70683;52.492;13.416;2023-09-12T12:24:40;36.60;31.20
80279;DHT22;70683;52.492;13.416;2023-09-12T12:27:07;36.30;31.90
80279;DHT22;70683;52.492;13.416;2023-09-12T12:29:37;36.10;32.40
80279;DHT22;70683;52.492;13.416;2023-09-12T12:32:05;35.90;33.00
80279;DHT22;70683;52.492;13.416;2023-09-12T12:34:34;35.70;33.10
80279;DHT22;70683;52.492;13.416;2023-09-12T12:37:02;35.40;33.40
80279;DHT22;70683;52.492;13.416;2023-09-12T12:39:29;35.10;34.30
80279;DHT22;70683;52.492;13.416;2023-09-12T12:41:56;34.70;35.90
80279;DHT22;70683;52.492;13.416;2023-09-12T12:44:32;34.50;35.50
80279;DHT22;70683;52.492;13.416;2023-09-12T12:46:54;34.40;35.20
80279;DHT22;70683;52.492;13.416;2023-09-12T12:49:21;34.20;35.80
80279;DHT22;70683;52.492;13.416;2023-09-12T12:51:49;33.90;35.90
80279;DHT22;70683;52.492;13.416;2023-09-12T12:54:15;33.80;36.50
80279;DHT22;70683;52.492;13.416;2023-09-12T12:56:43;33.60;36.90
80279;DHT22;70683;52.492;13.416;2023-09-12T12:59:11;33.40;37.20
80279;DHT22;70683;52.492;13.416;2023-09-12T13:01:38;33.20;37.30
80279;DHT22;70683;52.492;13.416;2023-09-12T13:04:06;33.10;37.80
80279;DHT22;70683;52.492;13.416;2023-09-12T13:06:34;32.90;38.20
80279;DHT22;70683;52.492;13.416;2023-09-12T13:09:03;32.80;38.70
80279;DHT22;70683;52.492;13.416;2023-09-12T13:11:32;32.70;38.40
80279;DHT22;70683;52.492;13.416;2023-09-12T13:14:03;32.40;38.80
80279;DHT22;70683;52.492;13.416;2023-09-12T13:16:34;32.10;39.70
80279;DHT22;70683;52.492;13.416;2023-09-12T13:19:01;32.00;39.80
80279;DHT22;70683;52.492;13.416;2023-09-12T13:21:28;31.70;40.70
80279;DHT22;70683;52.492;13.416;2023-09-12T13:23:54;31.60;40.40
80279;DHT22;70683;52.492;13.416;2023-09-12T13:26:21;31.60;40.20
80279;DHT22;70683;52.492;13.416;2023-09-12T13:28:48;31.60;40.50
80279;DHT22;70683;52.492;13.416;2023-09-12T13:31:14;31.60;40.80
80279;DHT22;70683;52.492;13.416;2023-09-12T13:33:41;31.60;40.30
80279;DHT22;70683;52.492;13.416;2023-09-12T13:36:08;31.70;40.10
80279;DHT22;70683;52.492;13.416;2023-09-12T13:38:45;31.70;40.20
80279;DHT22;70683;52.492;13.416;2023-09-12T13:41:14;31.80;40.10
80279;DHT22;70683;52.492;13.416;2023-09-12T13:43:40;31.80;39.60
80279;DHT22;70683;52.492;13.416;2023-09-12T13:46:07;31.70;39.70
80279;DHT22;70683;52.492;13.416;2023-09-12T13:48:35;31.60;39.80
80279;DHT22;70683;52.492;13.416;2023-09-12T13:51:02;31.60;39.70
80279;DHT22;70683;52.492;13.416;2023-09-12T13:53:30;31.50;39.70
80279;DHT22;70683;52.492;13.416;2023-09-12T13:55:56;31.50;39.80
80279;DHT22;70683;52.492;13.416;2023-09-12T13:58:24;31.40;40.00
80279;DHT22;70683;52.492;13.416;2023-09-12T14:00:51;31.30;40.00
80279;DHT22;70683;52.492;13.416;2023-09-12T14:03:17;31.30;40.60
80279;DHT22;70683;52.492;13.416;2023-09-12T14:05:44;31.40;40.70
80279;DHT22;70683;52.492;13.416;2023-09-12T14:08:11;31.30;40.80
80279;DHT22;70683;52.492;13.416;2023-09-12T14:10:37;31.30;40.80
80279;DHT22;70683;52.492;13.416;2023-09-12T14:13:04;31.30;41.30
80279;DHT22;70683;52.492;13.416;2023-09-12T14:15:30;31.20;41.00
80279;DHT22;70683;52.492;13.416;2023-09-12T14:17:57;31.10;40.30
80279;DHT22;70683;52.492;13.416;2023-09-12T14:20:24;31.10;40.40
80279;DHT22;70683;52.492;13.416;2023-09-12T14:22:50;31.10;40.80
80279;DHT22;70683;52.492;13.416;2023-09-12T14:25:17;31.10;40.90
80279;DHT22;70683;52.492;13.416;2023-09-12T14:27:44;31.10;41.00
80279;DHT22;70683;52.492;13.416;2023-09-12T14:30:11;31.10;40.60
80279;DHT22;70683;52.492;13.416;2023-09-12T14:32:39;31.00;41.10
80279;DHT22;70683;52.492;13.416;2023-09-12T14:35:07;31.00;41.30
80279;DHT22;70683;52.492;13.416;2023-09-12T14:37:34;31.00;41.70
80279;DHT22;70683;52.492;13.416;2023-09-12T14:40:03;30.90;41.80
80279;DHT22;70683;52.492;13.416;2023-09-12T14:42:31;30.90;41.60
80279;DHT22;70683;52.492;13.416;2023-09-12T14:44:58;30.90;41.90
80279;DHT22;70683;52.492;13.416;2023-09-12T14:47:25;30.80;42.40
80279;DHT22;70683;52.492;13.416;2023-09-12T14:49:54;30.80;42.20
80279;DHT22;70683;52.492;13.416;2023-09-12T14:52:20;30.80;42.50
80279;DHT22;70683;52.492;13.416;2023-09-12T14:54:47;30.70;42.70
80279;DHT22;70683;52.492;13.416;2023-09-12T14:57:14;30.70;43.60
80279;DHT22;70683;52.492;13.416;2023-09-12T14:59:40;30.50;44.80
80279;DHT22;70683;52.492;13.416;2023-09-12T15:02:07;30.00;46.80
80279;DHT22;70683;52.492;13.416;2023-09-12T15:04:34;29.40;48.10
80279;DHT22;70683;52.492;13.416;2023-09-12T15:07:00;29.10;48.10
80279;DHT22;70683;52.492;13.416;2023-09-12T15:09:27;28.70;48.90
80279;DHT22;70683;52.492;13.416;2023-09-12T15:11:54;28.40;49.40
80279;DHT22;70683;52.492;13.416;2023-09-12T15:14:20;28.20;49.90
80279;DHT22;70683;52.492;13.416;2023-09-12T15:16:48;28.10;50.40
80279;DHT22;70683;52.492;13.416;2023-09-12T15:19:15;27.90;51.20
80279;DHT22;70683;52.492;13.416;2023-09-12T15:21:42;27.70;51.90
80279;DHT22;70683;52.492;13.416;2023-09-12T15:24:09;27.70;51.90